sensor_id;sensor_type;location;lat;lon;timestamp;pressure;altitude;pressure_sealevel;temperature;humidity
19783;BME280;10051;40.294;-3.754;2023-02-18T00:01:21;95418.38;;;9.94;33.65
19783;BME280;10051;40.294;-3.754;2023-02-18T00:03:47;95409.44;;;9.73;33.39
19783;BME280;10051;40.294;-3.754;2023-02-18T00:06:15;95400.63;;;9.62;33.68
19783;BME280;10051;40.294;-3.754;2023-02-18T00:08:42;95420.50;;;9.75;33.67
19783;BME280;10051;40.294;-3.754;2023-02-18T00:11:08;95367.38;;;9.51;33.32
19783;BME280;10051;40.294;-3.754;2023-02-18T00:13:35;95427.81;;;9.73;32.99
19783;BME280;10051;40.294;-3.754;2023-02-18T00:16:06;95325.28;;;9.06;33.36
19783;BME280;10051;40.294;-3.754;2023-02-18T00:18:33;95387.59;;;9.33;33.91
19783;BME280;10051;40.294;-3.754;2023-02-18T00:20:58;95351.44;;;9.18;33.72
19783;BME280;10051;40.294;-3.754;2023-02-18T00:23:24;95340.84;;;9.13;33.81
19783;BME280;10051;40.294;-3.754;2023-02-18T00:25:58;95368.06;;;9.24;33.95
19783;BME280;10051;40.294;-3.754;2023-02-18T00:28:24;95350.09;;;8.99;33.98
19783;BME280;10051;40.294;-3.754;2023-02-18T00:30:49;95283.31;;;8.55;34.06
19783;BME280;10051;40.294;-3.754;2023-02-18T00:33:15;95360.81;;;9.14;34.02
19783;BME280;10051;40.294;-3.754;2023-02-18T00:35:40;95420.13;;;9.49;34.15
19783;BME280;10051;40.294;-3.754;2023-02-18T00:38:07;95348.50;;;8.98;34.53
19783;BME280;10051;40.294;-3.754;2023-02-18T00:40:36;95365.03;;;9.15;34.70
19783;BME280;10051;40.294;-3.754;2023-02-18T00:43:02;95345.63;;;8.99;34.71
19783;BME280;10051;40.294;-3.754;2023-02-18T00:45:28;95319.88;;;8.79;34.92
19783;BME280;10051;40.294;-3.754;2023-02-18T00:47:53;95292.69;;;8.51;35.59
19783;BME280;10051;40.294;-3.754;2023-02-18T00:50:19;95387.53;;;9.11;35.44
19783;BME280;10051;40.294;-3.754;2023-02-18T00:52:44;95346.84;;;8.91;35.20
19783;BME280;10051;40.294;-3.754;2023-02-18T00:55:10;95325.69;;;8.81;35.14
19783;BME280;10051;40.294;-3.754;2023-02-18T00:57:35;95271.59;;;8.46;34.58
19783;BME280;10051;40.294;-3.754;2023-02-18T01:00:03;95384.81;;;9.06;34.80
19783;BME280;10051;40.294;-3.754;2023-02-18T01:02:29;95412.25;;;9.15;34.71
19783;BME280;10051;40.294;-3.754;2023-02-18T01:04:54;95397.00;;;9.12;34.32
19783;BME280;10051;40.294;-3.754;2023-02-18T01:07:20;95402.75;;;9.26;34.39
19783;BME280;10051;40.294;-3.754;2023-02-18T01:09:46;95358.06;;;9.04;34.25
19783;BME280;10051;40.294;-3.754;2023-02-18T01:12:14;95383.00;;;9.23;34.14
19783;BME280;10051;40.294;-3.754;2023-02-18T01:14:40;95385.06;;;9.21;34.24
19783;BME280;10051;40.294;-3.754;2023-02-18T01:17:06;95277.53;;;8.53;33.93
19783;BME280;10051;40.294;-3.754;2023-02-18T01:19:31;95356.28;;;9.10;33.96
19783;BME280;10051;40.294;-3.754;2023-02-18T01:21:57;95333.94;;;9.07;33.96
19783;BME280;10051;40.294;-3.754;2023-02-18T01:24:22;95248.81;;;8.63;33.76
19783;BME280;10051;40.294;-3.754;2023-02-18T01:26:48;95321.94;;;9.11;33.80
19783;BME280;10051;40.294;-3.754;2023-02-18T01:29:14;95318.69;;;9.04;33.39
19783;BME280;10051;40.294;-3.754;2023-02-18T01:31:39;95322.41;;;9.08;33.33
19783;BME280;10051;40.294;-3.754;2023-02-18T01:34:05;95363.09;;;9.45;33.84
19783;BME280;10051;40.294;-3.754;2023-02-18T01:36:31;95396.72;;;9.65;33.60
19783;BME280;10051;40.294;-3.754;2023-02-18T01:38:56;95353.91;;;9.25;33.42
19783;BME280;10051;40.294;-3.754;2023-02-18T01:41:22;95372.50;;;9.23;33.83
19783;BME280;10051;40.294;-3.754;2023-02-18T01:43:48;95354.91;;;9.07;33.97
19783;BME280;10051;40.294;-3.754;2023-02-18T01:46:17;95394.94;;;9.14;34.51
19783;BME280;10051;40.294;-3.754;2023-02-18T01:48:52;95394.44;;;9.17;34.52
19783;BME280;10051;40.294;-3.754;2023-02-18T01:53:55;95382.44;;;9.21;34.42
19783;BME280;10051;40.294;-3.754;2023-02-18T01:56:29;95369.78;;;9.18;34.54
19783;BME280;10051;40.294;-3.754;2023-02-18T01:58:57;95380.06;;;9.20;34.25
19783;BME280;10051;40.294;-3.754;2023-02-18T02:01:25;95344.84;;;8.99;34.74
19783;BME280;10051;40.294;-3.754;2023-02-18T02:03:51;95272.97;;;8.66;34.02
19783;BME280;10051;40.294;-3.754;2023-02-18T02:06:19;95379.34;;;9.25;34.14
19783;BME280;10051;40.294;-3.754;2023-02-18T02:08:46;95377.28;;;9.27;34.39
19783;BME280;10051;40.294;-3.754;2023-02-18T02:16:47;95290.94;;;8.74;33.92
19783;BME280;10051;40.294;-3.754;2023-02-18T02:25:15;95387.44;;;9.40;34.36
19783;BME280;10051;40.294;-3.754;2023-02-18T02:38:52;95375.84;;;9.02;35.26
19783;BME280;10051;40.294;-3.754;2023-02-18T02:44:10;95370.09;;;8.88;36.10
19783;BME280;10051;40.294;-3.754;2023-02-18T02:46:44;95361.94;;;8.84;35.96
19783;BME280;10051;40.294;-3.754;2023-02-18T02:49:52;95360.25;;;8.78;36.15
19783;BME280;10051;40.294;-3.754;2023-02-18T02:52:26;95359.44;;;8.60;36.98
19783;BME280;10051;40.294;-3.754;2023-02-18T02:54:55;95301.50;;;8.16;36.83
19783;BME280;10051;40.294;-3.754;2023-02-18T02:59:53;95254.50;;;7.80;37.40
19783;BME280;10051;40.294;-3.754;2023-02-18T03:07:48;95347.53;;;8.41;37.00
19783;BME280;10051;40.294;-3.754;2023-02-18T03:21:34;95295.69;;;8.43;36.85
19783;BME280;10051;40.294;-3.754;2023-02-18T03:24:08;95321.84;;;8.72;36.61
19783;BME280;10051;40.294;-3.754;2023-02-18T03:26:38;95310.91;;;8.75;36.21
19783;BME280;10051;40.294;-3.754;2023-02-18T03:29:07;95299.19;;;8.66;36.72
19783;BME280;10051;40.294;-3.754;2023-02-18T03:31:36;95300.66;;;8.56;36.81
19783;BME280;10051;40.294;-3.754;2023-02-18T03:34:08;95348.50;;;8.81;36.53
19783;BME280;10051;40.294;-3.754;2023-02-18T03:36:35;95314.09;;;8.48;36.77
19783;BME280;10051;40.294;-3.754;2023-02-18T03:39:07;95352.28;;;8.73;37.17
19783;BME280;10051;40.294;-3.754;2023-02-18T03:41:34;95217.59;;;7.82;37.09
19783;BME280;10051;40.294;-3.754;2023-02-18T03:44:03;95253.34;;;8.05;37.42
19783;BME280;10051;40.294;-3.754;2023-02-18T03:46:30;95300.78;;;8.50;37.36
19783;BME280;10051;40.294;-3.754;2023-02-18T03:48:56;95260.88;;;8.30;37.40
19783;BME280;10051;40.294;-3.754;2023-02-18T03:51:21;95330.72;;;8.83;37.19
19783;BME280;10051;40.294;-3.754;2023-02-18T03:53:47;95328.38;;;8.69;37.57
19783;BME280;10051;40.294;-3.754;2023-02-18T03:56:14;95305.50;;;8.36;37.78
19783;BME280;10051;40.294;-3.754;2023-02-18T03:58:40;95191.75;;;7.85;37.40
19783;BME280;10051;40.294;-3.754;2023-02-18T04:01:05;95320.91;;;8.78;37.46
19783;BME280;10051;40.294;-3.754;2023-02-18T04:03:31;95279.69;;;8.56;36.89
19783;BME280;10051;40.294;-3.754;2023-02-18T04:05:57;95289.81;;;8.70;37.10
19783;BME280;10051;40.294;-3.754;2023-02-18T04:08:23;95266.22;;;8.70;36.97
19783;BME280;10051;40.294;-3.754;2023-02-18T04:10:48;95248.91;;;8.69;37.01
19783;BME280;10051;40.294;-3.754;2023-02-18T04:13:14;95191.47;;;8.33;36.67
19783;BME280;10051;40.294;-3.754;2023-02-18T04:15:40;95291.41;;;8.88;36.61
19783;BME280;10051;40.294;-3.754;2023-02-18T04:18:05;95322.47;;;9.13;36.39
19783;BME280;10051;40.294;-3.754;2023-02-18T04:20:31;95327.16;;;9.11;36.78
19783;BME280;10051;40.294;-3.754;2023-02-18T04:22:56;95226.50;;;8.27;37.04
19783;BME280;10051;40.294;-3.754;2023-02-18T04:25:22;95269.47;;;8.43;37.05
19783;BME280;10051;40.294;-3.754;2023-02-18T04:27:48;95193.47;;;7.80;37.06
19783;BME280;10051;40.294;-3.754;2023-02-18T04:30:13;95243.69;;;8.06;37.54
19783;BME280;10051;40.294;-3.754;2023-02-18T04:32:39;95268.97;;;8.29;37.48
19783;BME280;10051;40.294;-3.754;2023-02-18T04:35:05;95323.91;;;8.53;37.59
19783;BME280;10051;40.294;-3.754;2023-02-18T04:37:31;95282.53;;;8.26;37.58
19783;BME280;10051;40.294;-3.754;2023-02-18T04:39:56;95259.44;;;8.23;37.42
19783;BME280;10051;40.294;-3.754;2023-02-18T04:42:22;95329.53;;;8.61;37.58
19783;BME280;10051;40.294;-3.754;2023-02-18T04:44:47;95333.38;;;8.71;37.28
19783;BME280;10051;40.294;-3.754;2023-02-18T04:47:13;95230.69;;;8.11;37.73
19783;BME280;10051;40.294;-3.754;2023-02-18T04:49:41;95178.56;;;7.80;37.94
19783;BME280;10051;40.294;-3.754;2023-02-18T04:52:06;95286.97;;;8.54;37.71
19783;BME280;10051;40.294;-3.754;2023-02-18T04:54:32;95307.00;;;8.60;38.10
19783;BME280;10051;40.294;-3.754;2023-02-18T04:56:57;95275.66;;;8.37;38.58
19783;BME280;10051;40.294;-3.754;2023-02-18T04:59:23;95327.34;;;8.70;37.90
19783;BME280;10051;40.294;-3.754;2023-02-18T05:01:49;95282.00;;;8.24;38.54
19783;BME280;10051;40.294;-3.754;2023-02-18T05:04:15;95277.50;;;8.07;39.07
19783;BME280;10051;40.294;-3.754;2023-02-18T05:06:42;95331.53;;;8.25;39.03
19783;BME280;10051;40.294;-3.754;2023-02-18T05:09:08;95296.81;;;7.89;39.54
19783;BME280;10051;40.294;-3.754;2023-02-18T05:11:34;95185.09;;;7.37;38.87
19783;BME280;10051;40.294;-3.754;2023-02-18T05:14:00;95323.63;;;8.37;39.10
19783;BME280;10051;40.294;-3.754;2023-02-18T05:16:26;95262.59;;;8.08;38.71
19783;BME280;10051;40.294;-3.754;2023-02-18T05:18:51;95325.84;;;8.57;38.69
19783;BME280;10051;40.294;-3.754;2023-02-18T05:21:17;95169.66;;;7.23;39.33
19783;BME280;10051;40.294;-3.754;2023-02-18T05:23:43;95235.16;;;7.40;39.67
19783;BME280;10051;40.294;-3.754;2023-02-18T05:26:08;95317.25;;;8.04;39.18
19783;BME280;10051;40.294;-3.754;2023-02-18T05:28:34;95267.28;;;7.65;39.68
19783;BME280;10051;40.294;-3.754;2023-02-18T05:30:59;95300.25;;;7.78;39.33
19783;BME280;10051;40.294;-3.754;2023-02-18T05:33:25;95234.19;;;7.58;38.71
19783;BME280;10051;40.294;-3.754;2023-02-18T05:35:51;95298.38;;;8.31;38.02
19783;BME280;10051;40.294;-3.754;2023-02-18T05:38:16;95220.22;;;7.82;38.34
19783;BME280;10051;40.294;-3.754;2023-02-18T05:40:42;95334.41;;;8.70;37.88
19783;BME280;10051;40.294;-3.754;2023-02-18T05:43:07;95317.09;;;8.69;38.00
19783;BME280;10051;40.294;-3.754;2023-02-18T05:45:33;95255.84;;;8.12;38.01
19783;BME280;10051;40.294;-3.754;2023-02-18T05:47:59;95275.97;;;8.40;37.71
19783;BME280;10051;40.294;-3.754;2023-02-18T05:50:25;95299.53;;;8.52;38.14
19783;BME280;10051;40.294;-3.754;2023-02-18T05:52:50;95239.72;;;8.20;37.66
19783;BME280;10051;40.294;-3.754;2023-02-18T05:55:16;95257.69;;;8.28;37.67
19783;BME280;10051;40.294;-3.754;2023-02-18T05:57:42;95201.72;;;7.71;38.19
19783;BME280;10051;40.294;-3.754;2023-02-18T06:00:08;95225.50;;;7.70;38.76
19783;BME280;10051;40.294;-3.754;2023-02-18T06:02:35;95252.22;;;8.01;38.33
19783;BME280;10051;40.294;-3.754;2023-02-18T06:05:01;95285.16;;;8.26;38.25
19783;BME280;10051;40.294;-3.754;2023-02-18T06:07:26;95335.59;;;8.62;38.20
19783;BME280;10051;40.294;-3.754;2023-02-18T06:09:52;95284.19;;;8.15;38.90
19783;BME280;10051;40.294;-3.754;2023-02-18T06:12:18;95194.59;;;7.55;39.25
19783;BME280;10051;40.294;-3.754;2023-02-18T06:14:44;95332.81;;;8.52;38.84
19783;BME280;10051;40.294;-3.754;2023-02-18T06:17:11;95278.66;;;8.28;38.67
19783;BME280;10051;40.294;-3.754;2023-02-18T06:19:37;95326.78;;;8.68;38.49
19783;BME280;10051;40.294;-3.754;2023-02-18T06:22:03;95264.13;;;8.38;38.31
19783;BME280;10051;40.294;-3.754;2023-02-18T06:24:29;95303.75;;;8.53;38.76
19783;BME280;10051;40.294;-3.754;2023-02-18T06:26:54;95250.34;;;7.96;38.89
19783;BME280;10051;40.294;-3.754;2023-02-18T06:29:20;95247.66;;;7.79;39.44
19783;BME280;10051;40.294;-3.754;2023-02-18T06:31:46;95220.88;;;7.60;39.66
19783;BME280;10051;40.294;-3.754;2023-02-18T06:34:11;95297.31;;;8.03;39.66
19783;BME280;10051;40.294;-3.754;2023-02-18T06:36:37;95312.22;;;8.14;39.86
19783;BME280;10051;40.294;-3.754;2023-02-18T06:39:04;95269.75;;;7.83;39.79
19783;BME280;10051;40.294;-3.754;2023-02-18T06:41:30;95256.31;;;7.80;40.16
19783;BME280;10051;40.294;-3.754;2023-02-18T06:43:55;95281.19;;;7.94;39.69
19783;BME280;10051;40.294;-3.754;2023-02-18T06:46:21;95315.44;;;8.04;40.33
19783;BME280;10051;40.294;-3.754;2023-02-18T06:48:47;95217.56;;;7.24;40.59
19783;BME280;10051;40.294;-3.754;2023-02-18T06:51:13;95258.13;;;7.50;40.88
19783;BME280;10051;40.294;-3.754;2023-02-18T06:53:40;95287.72;;;7.80;40.46
19783;BME280;10051;40.294;-3.754;2023-02-18T06:56:06;95220.63;;;7.33;40.59
19783;BME280;10051;40.294;-3.754;2023-02-18T06:58:32;95333.59;;;8.23;40.38
19783;BME280;10051;40.294;-3.754;2023-02-18T07:00:58;95295.56;;;7.92;40.66
19783;BME280;10051;40.294;-3.754;2023-02-18T07:03:23;95355.31;;;8.07;40.54
19783;BME280;10051;40.294;-3.754;2023-02-18T07:05:49;95248.22;;;7.40;40.33
19783;BME280;10051;40.294;-3.754;2023-02-18T07:08:15;95287.88;;;7.73;40.54
19783;BME280;10051;40.294;-3.754;2023-02-18T07:10:41;95293.34;;;7.71;40.66
19783;BME280;10051;40.294;-3.754;2023-02-18T07:13:06;95346.53;;;8.01;40.55
19783;BME280;10051;40.294;-3.754;2023-02-18T07:15:32;95258.34;;;7.49;40.94
19783;BME280;10051;40.294;-3.754;2023-02-18T07:17:58;95353.34;;;8.14;40.41
19783;BME280;10051;40.294;-3.754;2023-02-18T07:20:25;95348.06;;;8.26;40.21
19783;BME280;10051;40.294;-3.754;2023-02-18T07:22:51;95351.38;;;8.21;39.94
19783;BME280;10051;40.294;-3.754;2023-02-18T07:25:17;95299.53;;;7.94;40.02
19783;BME280;10051;40.294;-3.754;2023-02-18T07:27:42;95311.34;;;7.97;39.55
19783;BME280;10051;40.294;-3.754;2023-02-18T07:30:08;95359.78;;;8.23;39.83
19783;BME280;10051;40.294;-3.754;2023-02-18T07:32:34;95361.28;;;8.19;39.51
19783;BME280;10051;40.294;-3.754;2023-02-18T07:35:01;95336.06;;;8.01;39.46
19783;BME280;10051;40.294;-3.754;2023-02-18T07:37:27;95362.38;;;8.35;39.27
19783;BME280;10051;40.294;-3.754;2023-02-18T07:39:52;95363.47;;;8.39;39.20
19783;BME280;10051;40.294;-3.754;2023-02-18T07:42:18;95327.28;;;8.07;39.14
19783;BME280;10051;40.294;-3.754;2023-02-18T07:44:43;95290.50;;;7.73;39.54
19783;BME280;10051;40.294;-3.754;2023-02-18T07:47:13;95377.34;;;8.23;39.32
19783;BME280;10051;40.294;-3.754;2023-02-18T07:49:39;95349.03;;;8.08;39.32
19783;BME280;10051;40.294;-3.754;2023-02-18T07:52:04;95363.63;;;8.32;38.99
19783;BME280;10051;40.294;-3.754;2023-02-18T07:54:30;95384.66;;;8.50;38.74
19783;BME280;10051;40.294;-3.754;2023-02-18T07:56:56;95248.31;;;7.57;38.47
19783;BME280;10051;40.294;-3.754;2023-02-18T07:59:21;95345.00;;;8.17;38.69
19783;BME280;10051;40.294;-3.754;2023-02-18T08:01:47;95282.94;;;7.77;38.74
19783;BME280;10051;40.294;-3.754;2023-02-18T08:04:13;95291.56;;;7.89;38.75
19783;BME280;10051;40.294;-3.754;2023-02-18T08:06:44;95390.81;;;8.55;39.03
19783;BME280;10051;40.294;-3.754;2023-02-18T08:09:11;95347.81;;;8.27;38.94
19783;BME280;10051;40.294;-3.754;2023-02-18T08:11:37;95387.63;;;8.41;38.98
19783;BME280;10051;40.294;-3.754;2023-02-18T08:14:03;95341.06;;;8.31;38.75
19783;BME280;10051;40.294;-3.754;2023-02-18T08:16:28;95331.25;;;8.39;38.62
19783;BME280;10051;40.294;-3.754;2023-02-18T08:18:54;95286.56;;;8.16;38.07
19783;BME280;10051;40.294;-3.754;2023-02-18T08:21:22;95366.75;;;8.58;38.67
19783;BME280;10051;40.294;-3.754;2023-02-18T08:23:48;95385.03;;;8.70;38.65
19783;BME280;10051;40.294;-3.754;2023-02-18T08:26:13;95315.16;;;8.18;38.86
19783;BME280;10051;40.294;-3.754;2023-02-18T08:28:39;95284.06;;;7.93;38.52
19783;BME280;10051;40.294;-3.754;2023-02-18T08:31:05;95342.03;;;8.42;38.30
19783;BME280;10051;40.294;-3.754;2023-02-18T08:33:31;95313.09;;;8.20;37.99
19783;BME280;10051;40.294;-3.754;2023-02-18T08:35:56;95405.88;;;8.77;37.89
19783;BME280;10051;40.294;-3.754;2023-02-18T08:38:24;95395.38;;;8.77;38.22
19783;BME280;10051;40.294;-3.754;2023-02-18T08:40:50;95398.09;;;8.82;37.88
19783;BME280;10051;40.294;-3.754;2023-02-18T08:43:16;95400.16;;;8.80;37.92
19783;BME280;10051;40.294;-3.754;2023-02-18T08:45:43;95401.66;;;8.76;38.22
19783;BME280;10051;40.294;-3.754;2023-02-18T08:48:11;95394.34;;;8.78;38.13
19783;BME280;10051;40.294;-3.754;2023-02-18T08:50:37;95351.97;;;8.52;37.47
19783;BME280;10051;40.294;-3.754;2023-02-18T08:53:03;95400.16;;;8.80;37.75
19783;BME280;10051;40.294;-3.754;2023-02-18T08:55:31;95400.00;;;8.87;37.57
19783;BME280;10051;40.294;-3.754;2023-02-18T08:57:56;95314.09;;;8.48;37.44
19783;BME280;10051;40.294;-3.754;2023-02-18T09:00:22;95380.13;;;8.91;37.57
19783;BME280;10051;40.294;-3.754;2023-02-18T09:02:48;95278.25;;;8.19;37.30
19783;BME280;10051;40.294;-3.754;2023-02-18T09:05:14;95315.34;;;8.57;37.00
19783;BME280;10051;40.294;-3.754;2023-02-18T09:07:39;95270.22;;;8.26;36.82
19783;BME280;10051;40.294;-3.754;2023-02-18T09:10:06;95394.22;;;9.02;37.53
19783;BME280;10051;40.294;-3.754;2023-02-18T09:12:33;95342.28;;;8.70;37.12
19783;BME280;10051;40.294;-3.754;2023-02-18T09:14:58;95228.41;;;7.85;37.88
19783;BME280;10051;40.294;-3.754;2023-02-18T09:17:25;95301.38;;;8.40;36.83
19783;BME280;10051;40.294;-3.754;2023-02-18T09:19:51;95355.25;;;8.76;37.33
19783;BME280;10051;40.294;-3.754;2023-02-18T09:22:17;95278.00;;;8.21;37.32
19783;BME280;10051;40.294;-3.754;2023-02-18T09:24:43;95379.34;;;8.90;37.40
19783;BME280;10051;40.294;-3.754;2023-02-18T09:27:09;95309.16;;;8.34;37.56
19783;BME280;10051;40.294;-3.754;2023-02-18T09:29:38;95411.16;;;9.11;37.42
19783;BME280;10051;40.294;-3.754;2023-02-18T09:32:04;95258.63;;;8.22;37.65
19783;BME280;10051;40.294;-3.754;2023-02-18T09:34:30;95257.03;;;8.21;37.84
19783;BME280;10051;40.294;-3.754;2023-02-18T09:36:56;95329.97;;;8.70;38.00
19783;BME280;10051;40.294;-3.754;2023-02-18T09:39:22;95412.34;;;9.37;37.83
19783;BME280;10051;40.294;-3.754;2023-02-18T09:41:53;95414.38;;;9.52;37.71
19783;BME280;10051;40.294;-3.754;2023-02-18T09:44:38;95377.91;;;9.34;37.68
19783;BME280;10051;40.294;-3.754;2023-02-18T09:49:39;95414.75;;;9.78;37.49
19783;BME280;10051;40.294;-3.754;2023-02-18T09:52:10;95409.31;;;9.85;37.10
19783;BME280;10051;40.294;-3.754;2023-02-18T09:54:37;95316.28;;;9.19;37.08
19783;BME280;10051;40.294;-3.754;2023-02-18T09:57:04;95355.22;;;9.45;36.81
19783;BME280;10051;40.294;-3.754;2023-02-18T09:59:31;95429.81;;;10.05;36.27
19783;BME280;10051;40.294;-3.754;2023-02-18T10:01:57;95362.97;;;9.57;35.89
19783;BME280;10051;40.294;-3.754;2023-02-18T10:04:28;95448.09;;;10.17;36.08
19783;BME280;10051;40.294;-3.754;2023-02-18T10:06:56;95315.63;;;9.29;35.93
19783;BME280;10051;40.294;-3.754;2023-02-18T10:09:32;95413.00;;;10.06;35.87
19783;BME280;10051;40.294;-3.754;2023-02-18T10:12:12;95435.13;;;10.33;35.87
19783;BME280;10051;40.294;-3.754;2023-02-18T10:14:38;95380.91;;;10.04;35.41
19783;BME280;10051;40.294;-3.754;2023-02-18T10:17:04;95363.88;;;10.07;34.97
19783;BME280;10051;40.294;-3.754;2023-02-18T10:19:35;95425.19;;;10.57;35.00
19783;BME280;10051;40.294;-3.754;2023-02-18T10:22:04;95427.88;;;10.62;35.20
19783;BME280;10051;40.294;-3.754;2023-02-18T10:24:37;95321.16;;;9.94;34.28
19783;BME280;10051;40.294;-3.754;2023-02-18T10:27:06;95375.31;;;10.40;33.99
19783;BME280;10051;40.294;-3.754;2023-02-18T10:29:32;95433.25;;;10.73;33.67
19783;BME280;10051;40.294;-3.754;2023-02-18T10:32:26;95407.91;;;10.66;33.55
19783;BME280;10051;40.294;-3.754;2023-02-18T10:35:23;95429.91;;;10.82;33.28
19783;BME280;10051;40.294;-3.754;2023-02-18T10:46:28;95440.19;;;10.84;33.84
19783;BME280;10051;40.294;-3.754;2023-02-18T10:51:56;95438.19;;;10.96;32.59
19783;BME280;10051;40.294;-3.754;2023-02-18T10:54:59;95395.91;;;10.76;32.62
19783;BME280;10051;40.294;-3.754;2023-02-18T10:57:25;95362.56;;;10.54;33.14
19783;BME280;10051;40.294;-3.754;2023-02-18T11:00:22;95433.91;;;11.18;32.96
19783;BME280;10051;40.294;-3.754;2023-02-18T11:03:14;95414.44;;;11.19;32.38
19783;BME280;10051;40.294;-3.754;2023-02-18T11:05:41;95427.69;;;11.29;32.05
19783;BME280;10051;40.294;-3.754;2023-02-18T11:08:10;95395.22;;;11.18;31.81
19783;BME280;10051;40.294;-3.754;2023-02-18T11:10:41;95276.16;;;10.40;31.75
19783;BME280;10051;40.294;-3.754;2023-02-18T11:13:09;95342.63;;;10.91;31.82
19783;BME280;10051;40.294;-3.754;2023-02-18T11:15:37;95340.28;;;10.94;32.27
19783;BME280;10051;40.294;-3.754;2023-02-18T11:18:22;95433.72;;;11.62;31.95
19783;BME280;10051;40.294;-3.754;2023-02-18T11:20:56;95378.75;;;11.33;32.39
19783;BME280;10051;40.294;-3.754;2023-02-18T11:23:22;95383.78;;;11.40;32.13
19783;BME280;10051;40.294;-3.754;2023-02-18T11:25:55;95368.75;;;11.35;31.97
19783;BME280;10051;40.294;-3.754;2023-02-18T11:28:33;95330.69;;;11.15;31.96
19783;BME280;10051;40.294;-3.754;2023-02-18T11:31:03;95414.50;;;11.62;32.18
19783;BME280;10051;40.294;-3.754;2023-02-18T11:33:36;95424.31;;;11.77;32.37
19783;BME280;10051;40.294;-3.754;2023-02-18T11:36:18;95327.81;;;11.17;32.09
19783;BME280;10051;40.294;-3.754;2023-02-18T11:38:56;95420.69;;;11.88;31.37
19783;BME280;10051;40.294;-3.754;2023-02-18T11:41:34;95406.66;;;11.77;31.68
19783;BME280;10051;40.294;-3.754;2023-02-18T11:44:05;95400.84;;;11.75;31.20
19783;BME280;10051;40.294;-3.754;2023-02-18T11:46:34;95373.59;;;11.54;31.13
19783;BME280;10051;40.294;-3.754;2023-02-18T11:49:11;95399.81;;;11.81;31.28
19783;BME280;10051;40.294;-3.754;2023-02-18T11:51:47;95407.25;;;11.89;31.63
19783;BME280;10051;40.294;-3.754;2023-02-18T11:54:39;95405.19;;;11.97;31.31
19783;BME280;10051;40.294;-3.754;2023-02-18T11:57:12;95401.25;;;11.99;31.21
19783;BME280;10051;40.294;-3.754;2023-02-18T11:59:39;95397.59;;;12.05;31.08
19783;BME280;10051;40.294;-3.754;2023-02-18T12:07:19;95380.28;;;12.20;31.03
19783;BME280;10051;40.294;-3.754;2023-02-18T12:09:51;95366.81;;;12.11;31.26
19783;BME280;10051;40.294;-3.754;2023-02-18T12:14:54;95351.84;;;12.32;31.03
19783;BME280;10051;40.294;-3.754;2023-02-18T12:18:00;95351.56;;;12.39;31.38
19783;BME280;10051;40.294;-3.754;2023-02-18T12:37:10;95214.94;;;12.20;31.95
19783;BME280;10051;40.294;-3.754;2023-02-18T12:42:34;95283.81;;;12.71;31.27
19783;BME280;10051;40.294;-3.754;2023-02-18T12:45:38;95297.25;;;12.79;31.71
19783;BME280;10051;40.294;-3.754;2023-02-18T12:59:41;95257.66;;;12.95;32.45
19783;BME280;10051;40.294;-3.754;2023-02-18T13:02:19;95270.59;;;13.07;32.38
19783;BME280;10051;40.294;-3.754;2023-02-18T13:08:23;95265.53;;;13.11;32.32
19783;BME280;10051;40.294;-3.754;2023-02-18T13:14:31;95247.56;;;13.23;32.67
19783;BME280;10051;40.294;-3.754;2023-02-18T13:16:32;95226.22;;;13.04;32.63
19783;BME280;10051;40.294;-3.754;2023-02-18T13:19:07;95144.78;;;12.56;32.60
19783;BME280;10051;40.294;-3.754;2023-02-18T13:21:38;95237.28;;;13.16;32.68
19783;BME280;10051;40.294;-3.754;2023-02-18T13:24:09;95239.13;;;13.21;32.95
19783;BME280;10051;40.294;-3.754;2023-02-18T13:26:38;95239.13;;;13.21;32.97
19783;BME280;10051;40.294;-3.754;2023-02-18T13:39:37;95221.66;;;13.30;33.61
19783;BME280;10051;40.294;-3.754;2023-02-18T13:47:41;95203.16;;;13.35;33.36
19783;BME280;10051;40.294;-3.754;2023-02-18T13:50:30;95196.53;;;13.38;33.22
19783;BME280;10051;40.294;-3.754;2023-02-18T13:58:19;95159.84;;;13.42;32.94
19783;BME280;10051;40.294;-3.754;2023-02-18T14:00:53;95135.00;;;13.43;32.90
19783;BME280;10051;40.294;-3.754;2023-02-18T14:05:55;95127.84;;;13.38;33.01
19783;BME280;10051;40.294;-3.754;2023-02-18T14:08:38;95179.41;;;13.86;33.05
19783;BME280;10051;40.294;-3.754;2023-02-18T14:13:49;95164.34;;;13.86;33.02
19783;BME280;10051;40.294;-3.754;2023-02-18T14:16:18;95073.75;;;13.30;33.21
19783;BME280;10051;40.294;-3.754;2023-02-18T14:24:14;95158.47;;;13.94;32.90
19783;BME280;10051;40.294;-3.754;2023-02-18T14:26:36;95151.03;;;13.96;33.25
19783;BME280;10051;40.294;-3.754;2023-02-18T14:29:11;95103.09;;;13.74;33.41
19783;BME280;10051;40.294;-3.754;2023-02-18T14:31:47;95095.22;;;13.68;33.99
19783;BME280;10051;40.294;-3.754;2023-02-18T14:45:56;95037.72;;;13.50;33.41
19783;BME280;10051;40.294;-3.754;2023-02-18T14:50:56;95095.97;;;14.09;33.52
19783;BME280;10051;40.294;-3.754;2023-02-18T14:53:25;95111.97;;;14.23;33.66
19783;BME280;10051;40.294;-3.754;2023-02-18T14:56:02;95113.13;;;14.41;33.30
19783;BME280;10051;40.294;-3.754;2023-02-18T15:00:54;94957.34;;;13.86;32.37
19783;BME280;10051;40.294;-3.754;2023-02-18T15:03:20;95113.66;;;14.97;32.38
19783;BME280;10051;40.294;-3.754;2023-02-18T15:05:48;95034.50;;;14.47;32.34
19783;BME280;10051;40.294;-3.754;2023-02-18T15:08:23;95114.59;;;15.06;31.79
19783;BME280;10051;40.294;-3.754;2023-02-18T15:11:05;95062.56;;;14.72;32.33
19783;BME280;10051;40.294;-3.754;2023-02-18T15:13:35;95074.94;;;14.77;32.86
19783;BME280;10051;40.294;-3.754;2023-02-18T15:16:07;95097.31;;;14.90;32.53
19783;BME280;10051;40.294;-3.754;2023-02-18T15:18:48;95002.41;;;14.29;32.49
19783;BME280;10051;40.294;-3.754;2023-02-18T15:21:23;95051.50;;;14.65;32.82
19783;BME280;10051;40.294;-3.754;2023-02-18T15:23:50;95032.66;;;14.71;32.46
19783;BME280;10051;40.294;-3.754;2023-02-18T15:26:19;94996.09;;;14.49;32.42
19783;BME280;10051;40.294;-3.754;2023-02-18T15:29:00;95110.81;;;15.12;32.96
19783;BME280;10051;40.294;-3.754;2023-02-18T15:31:29;95012.63;;;14.60;32.55
19783;BME280;10051;40.294;-3.754;2023-02-18T15:33:57;95083.66;;;15.01;32.75
19783;BME280;10051;40.294;-3.754;2023-02-18T15:36:25;95006.00;;;14.38;33.62
19783;BME280;10051;40.294;-3.754;2023-02-18T15:38:51;95077.66;;;14.96;33.66
19783;BME280;10051;40.294;-3.754;2023-02-18T15:41:19;95039.03;;;14.70;33.53